To NAV CANADA Home Page Login to a new session Search on AWWS site Disclaimer Vers la page française équivalente Tips FAQ What's new on the site To the Forecasts and Observations / NOTAM section To "File a Flight Plan" website Publications and other links Update of the User's profile FIC Telephone Numbers My Weather Data Folder Route Weather Data Regional Weather Data Local Weather Data To the Forecasts and Observations / NOTAM section
Request Generated 05/19/2019 at 15:05:34 UTC . Weather information available at that time is displayed.

METAR/TAF

OTTAWA/MACDONALD-CARTIER INTL/ON    

METAR CYOW 191500Z 07009KT 15SM OVC012 13/10 A2994 RMK SC8 SLP144=
METAR CYOW 191400Z 08013KT 15SM BKN012 BKN040 12/09 A2995 RMK CU5SC2 SLP145=
METAR CYOW 191300Z 06012G21KT 15SM SCT010 OVC042 11/09 A2996 RMK CF3SC5 SLP150=

TAF CYOW 191438Z 1915/2012 08012KT P6SM SCT012 BKN040 TEMPO 1915/1924
BKN012 OVC040
FM200000 09012KT P6SM OVC020
FM200400 09012KT 3SM SHRA BR BKN005 OVC010 PROB30 2004/2006
VRB15G25KT 11/2SM +TSRA BKN003 OVC030CB
FM200600 20009KT 6SM BR BKN020
BECMG 2010/2012 21012G22KT
RMK NXT FCST BY 191800Z=
Your time UTC time
Weather data provided by Environment Canada and NAV CANADA